sensor_id;sensor_type;location;lat;lon;timestamp;temperature;humidity
356;DHT22;62514;48.112;11.566;2024-02-23T00:00:42;7.00;34.20
356;DHT22;62514;48.112;11.566;2024-02-23T00:03:08;7.00;32.30
356;DHT22;62514;48.112;11.566;2024-02-23T00:05:36;7.00;32.40
356;DHT22;62514;48.112;11.566;2024-02-23T00:08:02;7.00;33.90
356;DHT22;62514;48.112;11.566;2024-02-23T00:10:28;7.00;32.90
356;DHT22;62514;48.112;11.566;2024-02-23T00:12:54;7.00;32.90
356;DHT22;62514;48.112;11.566;2024-02-23T00:15:20;7.00;32.00
356;DHT22;62514;48.112;11.566;2024-02-23T00:17:46;7.00;30.40
356;DHT22;62514;48.112;11.566;2024-02-23T00:20:12;7.00;31.10
356;DHT22;62514;48.112;11.566;2024-02-23T00:22:38;7.00;31.00
356;DHT22;62514;48.112;11.566;2024-02-23T00:25:04;7.00;31.40
356;DHT22;62514;48.112;11.566;2024-02-23T00:27:31;7.00;31.60
356;DHT22;62514;48.112;11.566;2024-02-23T00:29:57;7.00;31.10
356;DHT22;62514;48.112;11.566;2024-02-23T00:32:23;7.00;29.30
356;DHT22;62514;48.112;11.566;2024-02-23T00:34:49;7.00;28.40
356;DHT22;62514;48.112;11.566;2024-02-23T00:37:14;7.00;28.40
356;DHT22;62514;48.112;11.566;2024-02-23T00:39:40;7.00;25.90
356;DHT22;62514;48.112;11.566;2024-02-23T00:42:07;7.00;27.90
356;DHT22;62514;48.112;11.566;2024-02-23T00:44:33;7.00;28.60
356;DHT22;62514;48.112;11.566;2024-02-23T00:46:59;6.90;26.40
356;DHT22;62514;48.112;11.566;2024-02-23T00:49:27;7.00;27.70
356;DHT22;62514;48.112;11.566;2024-02-23T00:51:54;7.00;28.40
356;DHT22;62514;48.112;11.566;2024-02-23T00:54:21;7.00;27.70
356;DHT22;62514;48.112;11.566;2024-02-23T00:56:47;7.00;28.40
356;DHT22;62514;48.112;11.566;2024-02-23T00:59:13;6.90;28.20
356;DHT22;62514;48.112;11.566;2024-02-23T01:01:39;6.90;27.40
356;DHT22;62514;48.112;11.566;2024-02-23T01:04:04;6.90;27.80
356;DHT22;62514;48.112;11.566;2024-02-23T01:06:30;6.90;26.40
356;DHT22;62514;48.112;11.566;2024-02-23T01:08:56;6.90;25.70
356;DHT22;62514;48.112;11.566;2024-02-23T01:11:22;6.90;26.70
356;DHT22;62514;48.112;11.566;2024-02-23T01:13:48;6.90;25.60
356;DHT22;62514;48.112;11.566;2024-02-23T01:16:14;6.90;25.60
356;DHT22;62514;48.112;11.566;2024-02-23T01:18:40;6.90;25.80
356;DHT22;62514;48.112;11.566;2024-02-23T01:21:07;7.00;25.60
356;DHT22;62514;48.112;11.566;2024-02-23T01:23:33;7.00;25.80
356;DHT22;62514;48.112;11.566;2024-02-23T01:25:59;7.00;25.60
356;DHT22;62514;48.112;11.566;2024-02-23T01:28:26;7.00;25.60
356;DHT22;62514;48.112;11.566;2024-02-23T01:30:52;6.90;25.30
356;DHT22;62514;48.112;11.566;2024-02-23T01:33:17;7.00;24.50
356;DHT22;62514;48.112;11.566;2024-02-23T01:35:43;7.00;25.10
356;DHT22;62514;48.112;11.566;2024-02-23T01:38:09;7.00;23.60
356;DHT22;62514;48.112;11.566;2024-02-23T01:40:35;7.00;23.30
356;DHT22;62514;48.112;11.566;2024-02-23T01:43:05;7.00;21.60
356;DHT22;62514;48.112;11.566;2024-02-23T01:45:31;7.00;21.80
356;DHT22;62514;48.112;11.566;2024-02-23T01:47:58;6.90;22.70
356;DHT22;62514;48.112;11.566;2024-02-23T01:50:29;6.90;22.70
356;DHT22;62514;48.112;11.566;2024-02-23T01:53:01;6.90;22.30
356;DHT22;62514;48.112;11.566;2024-02-23T01:55:28;6.90;23.10
356;DHT22;62514;48.112;11.566;2024-02-23T01:57:56;6.80;23.30
356;DHT22;62514;48.112;11.566;2024-02-23T02:00:22;6.80;23.90
356;DHT22;62514;48.112;11.566;2024-02-23T02:02:48;6.70;23.70
356;DHT22;62514;48.112;11.566;2024-02-23T02:05:14;6.70;25.00
356;DHT22;62514;48.112;11.566;2024-02-23T02:07:41;6.70;25.50
356;DHT22;62514;48.112;11.566;2024-02-23T02:10:09;6.60;24.70
356;DHT22;62514;48.112;11.566;2024-02-23T02:12:35;6.60;24.70
356;DHT22;62514;48.112;11.566;2024-02-23T02:15:02;6.60;25.40
356;DHT22;62514;48.112;11.566;2024-02-23T02:17:28;6.60;25.40
356;DHT22;62514;48.112;11.566;2024-02-23T02:19:54;6.60;25.40
356;DHT22;62514;48.112;11.566;2024-02-23T02:22:20;6.60;25.40
356;DHT22;62514;48.112;11.566;2024-02-23T02:24:46;6.60;24.60
356;DHT22;62514;48.112;11.566;2024-02-23T02:27:14;6.50;24.30
356;DHT22;62514;48.112;11.566;2024-02-23T02:29:40;6.50;24.60
356;DHT22;62514;48.112;11.566;2024-02-23T02:32:06;6.60;23.10
356;DHT22;62514;48.112;11.566;2024-02-23T02:34:32;6.60;22.60
356;DHT22;62514;48.112;11.566;2024-02-23T02:36:59;6.60;22.60
356;DHT22;62514;48.112;11.566;2024-02-23T02:39:27;6.60;21.70
356;DHT22;62514;48.112;11.566;2024-02-23T02:41:53;6.60;22.10
356;DHT22;62514;48.112;11.566;2024-02-23T02:44:19;6.60;21.40
356;DHT22;62514;48.112;11.566;2024-02-23T02:46:44;6.60;21.60
356;DHT22;62514;48.112;11.566;2024-02-23T02:49:11;6.60;20.70
356;DHT22;62514;48.112;11.566;2024-02-23T02:51:37;6.60;21.30
356;DHT22;62514;48.112;11.566;2024-02-23T02:54:03;6.60;21.50
356;DHT22;62514;48.112;11.566;2024-02-23T02:56:29;6.60;22.60
356;DHT22;62514;48.112;11.566;2024-02-23T02:58:56;6.60;23.60
356;DHT22;62514;48.112;11.566;2024-02-23T03:01:22;6.60;24.70
356;DHT22;62514;48.112;11.566;2024-02-23T03:03:48;6.60;23.60
356;DHT22;62514;48.112;11.566;2024-02-23T03:06:16;6.50;23.40
356;DHT22;62514;48.112;11.566;2024-02-23T03:08:45;6.50;25.40
356;DHT22;62514;48.112;11.566;2024-02-23T03:11:11;6.50;25.40
356;DHT22;62514;48.112;11.566;2024-02-23T03:13:37;6.50;25.40
356;DHT22;62514;48.112;11.566;2024-02-23T03:16:03;6.50;25.40
356;DHT22;62514;48.112;11.566;2024-02-23T03:18:29;6.40;24.20
356;DHT22;62514;48.112;11.566;2024-02-23T03:20:55;6.40;25.30
356;DHT22;62514;48.112;11.566;2024-02-23T03:23:21;6.40;22.50
356;DHT22;62514;48.112;11.566;2024-02-23T03:25:47;6.40;23.60
356;DHT22;62514;48.112;11.566;2024-02-23T03:28:13;6.40;23.00
356;DHT22;62514;48.112;11.566;2024-02-23T03:30:39;6.30;22.50
356;DHT22;62514;48.112;11.566;2024-02-23T03:33:05;6.30;22.50
356;DHT22;62514;48.112;11.566;2024-02-23T03:35:31;6.30;22.70
356;DHT22;62514;48.112;11.566;2024-02-23T03:37:56;6.20;21.40
356;DHT22;62514;48.112;11.566;2024-02-23T03:40:22;6.30;20.80
356;DHT22;62514;48.112;11.566;2024-02-23T03:42:48;6.30;22.90
356;DHT22;62514;48.112;11.566;2024-02-23T03:45:14;6.30;21.80
356;DHT22;62514;48.112;11.566;2024-02-23T03:47:40;6.20;22.40
356;DHT22;62514;48.112;11.566;2024-02-23T03:50:06;6.20;22.40
356;DHT22;62514;48.112;11.566;2024-02-23T03:52:33;6.20;21.40
356;DHT22;62514;48.112;11.566;2024-02-23T03:54:59;6.20;22.40
356;DHT22;62514;48.112;11.566;2024-02-23T03:57:25;6.20;22.10
356;DHT22;62514;48.112;11.566;2024-02-23T03:59:55;6.20;22.70
356;DHT22;62514;48.112;11.566;2024-02-23T04:02:21;6.20;23.30
356;DHT22;62514;48.112;11.566;2024-02-23T04:04:48;6.10;24.90
356;DHT22;62514;48.112;11.566;2024-02-23T04:07:14;6.10;25.20
356;DHT22;62514;48.112;11.566;2024-02-23T04:09:41;6.00;22.80
356;DHT22;62514;48.112;11.566;2024-02-23T04:12:07;6.00;22.40
356;DHT22;62514;48.112;11.566;2024-02-23T04:14:33;6.00;23.70
356;DHT22;62514;48.112;11.566;2024-02-23T04:17:03;5.90;24.50
356;DHT22;62514;48.112;11.566;2024-02-23T04:19:29;5.90;24.40
356;DHT22;62514;48.112;11.566;2024-02-23T04:21:55;5.90;25.40
356;DHT22;62514;48.112;11.566;2024-02-23T04:24:21;5.90;22.60
356;DHT22;62514;48.112;11.566;2024-02-23T04:26:47;5.90;21.60
356;DHT22;62514;48.112;11.566;2024-02-23T04:29:13;5.90;19.90
356;DHT22;62514;48.112;11.566;2024-02-23T04:31:39;5.90;19.70
356;DHT22;62514;48.112;11.566;2024-02-23T04:34:05;5.80;19.90
356;DHT22;62514;48.112;11.566;2024-02-23T04:36:31;5.80;21.70
356;DHT22;62514;48.112;11.566;2024-02-23T04:38:57;5.80;21.00
356;DHT22;62514;48.112;11.566;2024-02-23T04:41:23;5.70;22.30
356;DHT22;62514;48.112;11.566;2024-02-23T04:43:49;5.60;21.90
356;DHT22;62514;48.112;11.566;2024-02-23T04:46:15;5.60;22.20
356;DHT22;62514;48.112;11.566;2024-02-23T04:48:41;5.60;23.60
356;DHT22;62514;48.112;11.566;2024-02-23T04:51:07;5.60;25.00
356;DHT22;62514;48.112;11.566;2024-02-23T04:53:37;5.50;25.00
356;DHT22;62514;48.112;11.566;2024-02-23T04:56:04;5.60;25.50
356;DHT22;62514;48.112;11.566;2024-02-23T04:58:30;5.60;25.00
356;DHT22;62514;48.112;11.566;2024-02-23T05:00:56;5.60;26.00
356;DHT22;62514;48.112;11.566;2024-02-23T05:03:22;5.60;26.30
356;DHT22;62514;48.112;11.566;2024-02-23T05:05:48;5.50;26.90
356;DHT22;62514;48.112;11.566;2024-02-23T05:08:20;5.50;27.60
356;DHT22;62514;48.112;11.566;2024-02-23T05:10:52;5.40;28.60
356;DHT22;62514;48.112;11.566;2024-02-23T05:13:17;5.40;29.70
356;DHT22;62514;48.112;11.566;2024-02-23T05:15:44;5.20;29.70
356;DHT22;62514;48.112;11.566;2024-02-23T05:18:09;5.20;30.70
356;DHT22;62514;48.112;11.566;2024-02-23T05:20:35;5.10;31.30
356;DHT22;62514;48.112;11.566;2024-02-23T05:23:01;5.00;32.80
356;DHT22;62514;48.112;11.566;2024-02-23T05:25:27;5.00;33.10
356;DHT22;62514;48.112;11.566;2024-02-23T05:27:53;5.00;34.30
356;DHT22;62514;48.112;11.566;2024-02-23T05:30:19;5.00;34.80
356;DHT22;62514;48.112;11.566;2024-02-23T05:32:45;4.90;35.80
356;DHT22;62514;48.112;11.566;2024-02-23T05:35:12;4.90;35.80
356;DHT22;62514;48.112;11.566;2024-02-23T05:37:38;4.90;36.40
356;DHT22;62514;48.112;11.566;2024-02-23T05:40:05;5.00;35.80
356;DHT22;62514;48.112;11.566;2024-02-23T05:42:39;5.00;35.90
356;DHT22;62514;48.112;11.566;2024-02-23T05:45:07;4.90;35.80
356;DHT22;62514;48.112;11.566;2024-02-23T05:47:40;4.90;35.90
356;DHT22;62514;48.112;11.566;2024-02-23T05:50:08;4.90;35.80
356;DHT22;62514;48.112;11.566;2024-02-23T05:52:35;4.90;35.80
356;DHT22;62514;48.112;11.566;2024-02-23T05:55:03;4.90;35.80
356;DHT22;62514;48.112;11.566;2024-02-23T05:57:30;4.90;35.80
356;DHT22;62514;48.112;11.566;2024-02-23T05:59:55;5.00;35.80
356;DHT22;62514;48.112;11.566;2024-02-23T06:02:22;5.00;35.80
356;DHT22;62514;48.112;11.566;2024-02-23T06:04:48;5.00;34.60
356;DHT22;62514;48.112;11.566;2024-02-23T06:07:14;5.00;34.30
356;DHT22;62514;48.112;11.566;2024-02-23T06:09:42;5.00;35.00
356;DHT22;62514;48.112;11.566;2024-02-23T06:12:08;5.00;35.20
356;DHT22;62514;48.112;11.566;2024-02-23T06:14:35;5.10;35.20
356;DHT22;62514;48.112;11.566;2024-02-23T06:17:01;5.10;34.50
356;DHT22;62514;48.112;11.566;2024-02-23T06:19:27;5.10;33.10
356;DHT22;62514;48.112;11.566;2024-02-23T06:21:54;5.10;32.40
356;DHT22;62514;48.112;11.566;2024-02-23T06:24:20;5.00;30.90
356;DHT22;62514;48.112;11.566;2024-02-23T06:26:46;5.00;30.90
356;DHT22;62514;48.112;11.566;2024-02-23T06:29:14;5.00;28.60
356;DHT22;62514;48.112;11.566;2024-02-23T06:31:40;5.10;28.60
356;DHT22;62514;48.112;11.566;2024-02-23T06:34:08;5.10;28.20
356;DHT22;62514;48.112;11.566;2024-02-23T06:36:33;5.00;27.70
356;DHT22;62514;48.112;11.566;2024-02-23T06:38:59;5.10;28.00
356;DHT22;62514;48.112;11.566;2024-02-23T06:41:25;5.10;27.20
356;DHT22;62514;48.112;11.566;2024-02-23T06:43:52;5.10;27.00
356;DHT22;62514;48.112;11.566;2024-02-23T06:46:19;5.10;26.60
356;DHT22;62514;48.112;11.566;2024-02-23T06:48:48;5.10;26.50
356;DHT22;62514;48.112;11.566;2024-02-23T06:51:14;5.10;25.60
356;DHT22;62514;48.112;11.566;2024-02-23T06:53:41;5.10;24.80
356;DHT22;62514;48.112;11.566;2024-02-23T06:56:07;5.10;25.90
356;DHT22;62514;48.112;11.566;2024-02-23T06:58:34;5.10;25.00
356;DHT22;62514;48.112;11.566;2024-02-23T07:01:01;5.10;26.30
356;DHT22;62514;48.112;11.566;2024-02-23T07:03:28;5.10;25.40
356;DHT22;62514;48.112;11.566;2024-02-23T07:05:55;5.10;24.90
356;DHT22;62514;48.112;11.566;2024-02-23T07:08:21;5.20;24.80
356;DHT22;62514;48.112;11.566;2024-02-23T07:10:47;5.20;24.90
356;DHT22;62514;48.112;11.566;2024-02-23T07:13:13;5.20;24.80
356;DHT22;62514;48.112;11.566;2024-02-23T07:15:39;5.20;24.90
356;DHT22;62514;48.112;11.566;2024-02-23T07:18:05;5.10;24.80
356;DHT22;62514;48.112;11.566;2024-02-23T07:20:33;5.10;24.80
356;DHT22;62514;48.112;11.566;2024-02-23T07:22:59;5.10;24.80
356;DHT22;62514;48.112;11.566;2024-02-23T07:25:25;5.10;24.90
356;DHT22;62514;48.112;11.566;2024-02-23T07:27:51;5.10;25.40
356;DHT22;62514;48.112;11.566;2024-02-23T07:30:17;5.20;24.90
356;DHT22;62514;48.112;11.566;2024-02-23T07:32:44;5.20;24.90
356;DHT22;62514;48.112;11.566;2024-02-23T07:35:10;5.20;24.90
356;DHT22;62514;48.112;11.566;2024-02-23T07:37:37;5.20;25.50
356;DHT22;62514;48.112;11.566;2024-02-23T07:40:03;5.10;24.80
356;DHT22;62514;48.112;11.566;2024-02-23T07:42:31;5.10;24.80
356;DHT22;62514;48.112;11.566;2024-02-23T07:44:57;5.20;24.80
356;DHT22;62514;48.112;11.566;2024-02-23T07:47:23;5.20;24.80
356;DHT22;62514;48.112;11.566;2024-02-23T07:49:49;5.20;24.00
356;DHT22;62514;48.112;11.566;2024-02-23T07:52:16;5.20;24.90
356;DHT22;62514;48.112;11.566;2024-02-23T07:54:42;5.20;23.90
356;DHT22;62514;48.112;11.566;2024-02-23T07:57:08;5.20;23.40
356;DHT22;62514;48.112;11.566;2024-02-23T07:59:34;5.30;22.90
356;DHT22;62514;48.112;11.566;2024-02-23T08:02:00;5.30;22.10
356;DHT22;62514;48.112;11.566;2024-02-23T08:04:26;5.40;19.90
356;DHT22;62514;48.112;11.566;2024-02-23T08:06:52;5.50;21.10
356;DHT22;62514;48.112;11.566;2024-02-23T08:09:18;5.40;19.50
356;DHT22;62514;48.112;11.566;2024-02-23T08:11:44;5.50;19.30
356;DHT22;62514;48.112;11.566;2024-02-23T08:14:12;5.60;18.20
356;DHT22;62514;48.112;11.566;2024-02-23T08:16:38;5.60;18.60
356;DHT22;62514;48.112;11.566;2024-02-23T08:19:03;5.60;18.10
356;DHT22;62514;48.112;11.566;2024-02-23T08:21:29;5.70;18.70
356;DHT22;62514;48.112;11.566;2024-02-23T08:23:55;5.70;17.40
356;DHT22;62514;48.112;11.566;2024-02-23T08:26:21;5.80;17.40
356;DHT22;62514;48.112;11.566;2024-02-23T08:28:47;5.80;17.40
356;DHT22;62514;48.112;11.566;2024-02-23T08:31:13;6.00;18.40
356;DHT22;62514;48.112;11.566;2024-02-23T08:33:39;6.00;16.60
356;DHT22;62514;48.112;11.566;2024-02-23T08:36:05;6.00;15.20
356;DHT22;62514;48.112;11.566;2024-02-23T08:38:32;6.00;15.20
356;DHT22;62514;48.112;11.566;2024-02-23T08:40:58;6.10;15.60
356;DHT22;62514;48.112;11.566;2024-02-23T08:43:27;6.20;14.40
356;DHT22;62514;48.112;11.566;2024-02-23T08:45:53;6.20;15.20
356;DHT22;62514;48.112;11.566;2024-02-23T08:48:19;6.30;15.30
356;DHT22;62514;48.112;11.566;2024-02-23T08:50:44;6.30;13.20
356;DHT22;62514;48.112;11.566;2024-02-23T08:53:10;6.30;13.60
356;DHT22;62514;48.112;11.566;2024-02-23T08:55:36;6.30;13.60
356;DHT22;62514;48.112;11.566;2024-02-23T08:58:04;6.10;13.50
356;DHT22;62514;48.112;11.566;2024-02-23T09:00:32;6.00;14.60
356;DHT22;62514;48.112;11.566;2024-02-23T09:02:58;6.00;15.20
356;DHT22;62514;48.112;11.566;2024-02-23T09:05:24;6.00;15.00
356;DHT22;62514;48.112;11.566;2024-02-23T09:07:49;6.00;15.20
356;DHT22;62514;48.112;11.566;2024-02-23T09:10:15;6.10;15.20
356;DHT22;62514;48.112;11.566;2024-02-23T09:12:41;6.10;14.40
356;DHT22;62514;48.112;11.566;2024-02-23T09:15:08;6.10;14.80
356;DHT22;62514;48.112;11.566;2024-02-23T09:17:34;6.10;14.60
356;DHT22;62514;48.112;11.566;2024-02-23T09:22:34;6.00;15.70
356;DHT22;62514;48.112;11.566;2024-02-23T09:25:03;6.00;15.20
356;DHT22;62514;48.112;11.566;2024-02-23T09:27:31;6.00;15.20
356;DHT22;62514;48.112;11.566;2024-02-23T09:29:57;6.00;15.10
356;DHT22;62514;48.112;11.566;2024-02-23T09:32:24;6.00;15.20
356;DHT22;62514;48.112;11.566;2024-02-23T09:34:50;6.00;15.20
356;DHT22;62514;48.112;11.566;2024-02-23T09:37:16;6.00;14.50
356;DHT22;62514;48.112;11.566;2024-02-23T09:39:42;5.90;14.00
356;DHT22;62514;48.112;11.566;2024-02-23T09:42:10;5.80;13.00
356;DHT22;62514;48.112;11.566;2024-02-23T09:44:37;5.70;15.10
356;DHT22;62514;48.112;11.566;2024-02-23T09:47:04;5.70;15.10
356;DHT22;62514;48.112;11.566;2024-02-23T09:49:40;5.70;16.60
356;DHT22;62514;48.112;11.566;2024-02-23T09:52:10;5.80;17.20
356;DHT22;62514;48.112;11.566;2024-02-23T09:54:39;5.80;16.70
356;DHT22;62514;48.112;11.566;2024-02-23T09:57:08;5.80;15.10
356;DHT22;62514;48.112;11.566;2024-02-23T09:59:35;5.80;14.30
356;DHT22;62514;48.112;11.566;2024-02-23T10:02:08;5.70;15.10
356;DHT22;62514;48.112;11.566;2024-02-23T10:04:38;5.90;14.30
356;DHT22;62514;48.112;11.566;2024-02-23T10:07:08;5.80;15.10
356;DHT22;62514;48.112;11.566;2024-02-23T10:09:34;5.70;15.10
356;DHT22;62514;48.112;11.566;2024-02-23T10:12:04;5.60;15.10
356;DHT22;62514;48.112;11.566;2024-02-23T10:14:30;5.70;15.10
356;DHT22;62514;48.112;11.566;2024-02-23T10:16:56;5.70;15.20
356;DHT22;62514;48.112;11.566;2024-02-23T10:19:22;5.80;15.10
356;DHT22;62514;48.112;11.566;2024-02-23T10:21:48;5.90;15.20
356;DHT22;62514;48.112;11.566;2024-02-23T10:24:17;5.90;15.20
356;DHT22;62514;48.112;11.566;2024-02-23T10:26:44;6.00;15.20
356;DHT22;62514;48.112;11.566;2024-02-23T10:29:10;6.00;15.20
356;DHT22;62514;48.112;11.566;2024-02-23T10:31:36;6.10;15.20
356;DHT22;62514;48.112;11.566;2024-02-23T10:34:09;6.10;15.20
356;DHT22;62514;48.112;11.566;2024-02-23T10:36:42;6.10;17.40
356;DHT22;62514;48.112;11.566;2024-02-23T10:39:08;6.20;17.00
356;DHT22;62514;48.112;11.566;2024-02-23T10:41:35;6.30;15.60
356;DHT22;62514;48.112;11.566;2024-02-23T10:44:05;6.30;15.50
356;DHT22;62514;48.112;11.566;2024-02-23T10:46:32;6.40;16.80
356;DHT22;62514;48.112;11.566;2024-02-23T10:48:59;6.30;15.30
356;DHT22;62514;48.112;11.566;2024-02-23T10:51:25;6.20;14.60
356;DHT22;62514;48.112;11.566;2024-02-23T10:53:52;6.20;15.20
356;DHT22;62514;48.112;11.566;2024-02-23T10:56:18;6.10;15.20
356;DHT22;62514;48.112;11.566;2024-02-23T10:58:45;5.90;15.20
356;DHT22;62514;48.112;11.566;2024-02-23T11:01:12;5.90;17.40
356;DHT22;62514;48.112;11.566;2024-02-23T11:03:42;6.00;16.90
356;DHT22;62514;48.112;11.566;2024-02-23T11:06:08;6.10;15.20
356;DHT22;62514;48.112;11.566;2024-02-23T11:08:35;6.10;15.20
356;DHT22;62514;48.112;11.566;2024-02-23T11:11:11;6.00;14.00
356;DHT22;62514;48.112;11.566;2024-02-23T11:13:38;6.00;14.60
356;DHT22;62514;48.112;11.566;2024-02-23T11:16:08;5.90;13.80
356;DHT22;62514;48.112;11.566;2024-02-23T11:18:35;5.80;12.80
356;DHT22;62514;48.112;11.566;2024-02-23T11:21:05;5.80;13.60
356;DHT22;62514;48.112;11.566;2024-02-23T11:23:47;5.90;15.20
356;DHT22;62514;48.112;11.566;2024-02-23T11:26:14;6.00;12.70
356;DHT22;62514;48.112;11.566;2024-02-23T11:28:51;5.90;13.50
356;DHT22;62514;48.112;11.566;2024-02-23T11:31:24;5.90;12.10
356;DHT22;62514;48.112;11.566;2024-02-23T11:33:51;5.90;13.40
356;DHT22;62514;48.112;11.566;2024-02-23T11:36:34;5.90;12.30
356;DHT22;62514;48.112;11.566;2024-02-23T11:39:01;5.90;11.30
356;DHT22;62514;48.112;11.566;2024-02-23T11:41:28;5.80;11.90
356;DHT22;62514;48.112;11.566;2024-02-23T11:43:55;5.90;12.80
356;DHT22;62514;48.112;11.566;2024-02-23T11:46:22;6.00;12.30
356;DHT22;62514;48.112;11.566;2024-02-23T11:48:49;5.90;11.70
356;DHT22;62514;48.112;11.566;2024-02-23T11:51:21;5.90;12.10
356;DHT22;62514;48.112;11.566;2024-02-23T11:53:49;6.00;13.40
356;DHT22;62514;48.112;11.566;2024-02-23T11:56:15;5.80;10.90
356;DHT22;62514;48.112;11.566;2024-02-23T11:58:42;5.70;11.30
356;DHT22;62514;48.112;11.566;2024-02-23T12:01:08;5.60;11.60
356;DHT22;62514;48.112;11.566;2024-02-23T12:03:34;5.70;12.00
356;DHT22;62514;48.112;11.566;2024-02-23T12:06:01;5.70;10.30
356;DHT22;62514;48.112;11.566;2024-02-23T12:08:29;5.70;11.30
356;DHT22;62514;48.112;11.566;2024-02-23T12:10:56;5.80;12.20
356;DHT22;62514;48.112;11.566;2024-02-23T12:13:22;5.80;10.10
356;DHT22;62514;48.112;11.566;2024-02-23T12:15:49;5.50;10.40
356;DHT22;62514;48.112;11.566;2024-02-23T12:18:21;5.50;12.00
356;DHT22;62514;48.112;11.566;2024-02-23T12:20:49;5.50;12.80
356;DHT22;62514;48.112;11.566;2024-02-23T12:23:15;5.50;12.80
356;DHT22;62514;48.112;11.566;2024-02-23T12:25:53;5.60;12.00
356;DHT22;62514;48.112;11.566;2024-02-23T12:28:19;5.70;10.50
356;DHT22;62514;48.112;11.566;2024-02-23T12:30:45;5.50;10.50
356;DHT22;62514;48.112;11.566;2024-02-23T12:33:15;5.50;10.90
356;DHT22;62514;48.112;11.566;2024-02-23T12:35:41;5.50;10.90
356;DHT22;62514;48.112;11.566;2024-02-23T12:38:07;5.50;11.00
356;DHT22;62514;48.112;11.566;2024-02-23T12:40:34;5.60;10.10
356;DHT22;62514;48.112;11.566;2024-02-23T12:43:00;5.60;9.70
356;DHT22;62514;48.112;11.566;2024-02-23T12:45:26;5.60;9.80
356;DHT22;62514;48.112;11.566;2024-02-23T12:47:52;5.70;10.00
356;DHT22;62514;48.112;11.566;2024-02-23T12:50:18;5.80;10.00
356;DHT22;62514;48.112;11.566;2024-02-23T12:52:44;5.70;8.50
356;DHT22;62514;48.112;11.566;2024-02-23T12:55:11;5.70;8.90
356;DHT22;62514;48.112;11.566;2024-02-23T12:57:37;5.70;9.40
356;DHT22;62514;48.112;11.566;2024-02-23T13:00:04;5.70;9.20
356;DHT22;62514;48.112;11.566;2024-02-23T13:02:31;5.80;8.40
356;DHT22;62514;48.112;11.566;2024-02-23T13:04:57;5.80;7.60
356;DHT22;62514;48.112;11.566;2024-02-23T13:07:22;5.80;8.10
356;DHT22;62514;48.112;11.566;2024-02-23T13:09:48;5.90;9.00
356;DHT22;62514;48.112;11.566;2024-02-23T13:12:14;5.90;6.90
356;DHT22;62514;48.112;11.566;2024-02-23T13:14:40;5.80;7.20
356;DHT22;62514;48.112;11.566;2024-02-23T13:17:06;5.70;5.70
356;DHT22;62514;48.112;11.566;2024-02-23T13:19:32;5.60;5.70
356;DHT22;62514;48.112;11.566;2024-02-23T13:21:58;5.60;6.60
356;DHT22;62514;48.112;11.566;2024-02-23T13:24:26;5.50;6.70
356;DHT22;62514;48.112;11.566;2024-02-23T13:26:52;5.40;5.60
356;DHT22;62514;48.112;11.566;2024-02-23T13:29:18;5.30;5.60
356;DHT22;62514;48.112;11.566;2024-02-23T13:31:44;5.30;7.00
356;DHT22;62514;48.112;11.566;2024-02-23T13:34:10;5.30;7.20
356;DHT22;62514;48.112;11.566;2024-02-23T13:36:37;5.20;6.20
356;DHT22;62514;48.112;11.566;2024-02-23T13:39:04;5.10;7.90
356;DHT22;62514;48.112;11.566;2024-02-23T13:41:30;5.10;8.10
356;DHT22;62514;48.112;11.566;2024-02-23T13:43:56;5.00;8.70
356;DHT22;62514;48.112;11.566;2024-02-23T13:46:22;5.10;8.70
356;DHT22;62514;48.112;11.566;2024-02-23T13:49:05;5.00;8.40
356;DHT22;62514;48.112;11.566;2024-02-23T13:51:32;5.00;8.80
356;DHT22;62514;48.112;11.566;2024-02-23T13:53:58;5.10;9.30
356;DHT22;62514;48.112;11.566;2024-02-23T13:56:24;5.10;10.40
356;DHT22;62514;48.112;11.566;2024-02-23T13:58:50;5.20;10.50
356;DHT22;62514;48.112;11.566;2024-02-23T14:01:16;5.30;8.40
356;DHT22;62514;48.112;11.566;2024-02-23T14:03:42;5.40;9.40
356;DHT22;62514;48.112;11.566;2024-02-23T14:06:08;5.50;9.80
356;DHT22;62514;48.112;11.566;2024-02-23T14:08:35;5.60;8.90
356;DHT22;62514;48.112;11.566;2024-02-23T14:11:03;5.60;8.40
356;DHT22;62514;48.112;11.566;2024-02-23T14:13:33;5.50;8.90
356;DHT22;62514;48.112;11.566;2024-02-23T14:15:59;5.50;8.50
356;DHT22;62514;48.112;11.566;2024-02-23T14:18:25;5.50;9.30
356;DHT22;62514;48.112;11.566;2024-02-23T14:20:50;5.50;9.00
356;DHT22;62514;48.112;11.566;2024-02-23T14:23:18;5.50;9.80
356;DHT22;62514;48.112;11.566;2024-02-23T14:25:44;5.40;8.50
356;DHT22;62514;48.112;11.566;2024-02-23T14:28:10;5.30;8.00
356;DHT22;62514;48.112;11.566;2024-02-23T14:30:36;5.20;9.30
356;DHT22;62514;48.112;11.566;2024-02-23T14:33:02;5.20;9.60
356;DHT22;62514;48.112;11.566;2024-02-23T14:35:28;5.10;9.40
356;DHT22;62514;48.112;11.566;2024-02-23T14:37:54;5.10;10.10
356;DHT22;62514;48.112;11.566;2024-02-23T14:40:20;5.10;8.70
356;DHT22;62514;48.112;11.566;2024-02-23T14:42:45;5.10;9.90
356;DHT22;62514;48.112;11.566;2024-02-23T14:45:11;5.10;9.90
356;DHT22;62514;48.112;11.566;2024-02-23T14:47:39;5.00;9.30
356;DHT22;62514;48.112;11.566;2024-02-23T14:50:05;5.00;10.70
356;DHT22;62514;48.112;11.566;2024-02-23T14:52:31;5.00;10.80
356;DHT22;62514;48.112;11.566;2024-02-23T14:54:57;5.10;11.30
356;DHT22;62514;48.112;11.566;2024-02-23T14:57:23;5.10;10.80
356;DHT22;62514;48.112;11.566;2024-02-23T14:59:50;5.00;10.50
356;DHT22;62514;48.112;11.566;2024-02-23T15:02:20;4.90;10.50
356;DHT22;62514;48.112;11.566;2024-02-23T15:04:46;4.80;11.30
356;DHT22;62514;48.112;11.566;2024-02-23T15:07:12;4.80;11.60
356;DHT22;62514;48.112;11.566;2024-02-23T15:09:38;4.80;12.50
356;DHT22;62514;48.112;11.566;2024-02-23T15:12:04;4.70;12.50
356;DHT22;62514;48.112;11.566;2024-02-23T15:14:30;4.80;12.60
356;DHT22;62514;48.112;11.566;2024-02-23T15:16:56;4.80;13.40
356;DHT22;62514;48.112;11.566;2024-02-23T15:19:22;4.70;12.50
356;DHT22;62514;48.112;11.566;2024-02-23T15:21:49;4.70;12.60
356;DHT22;62514;48.112;11.566;2024-02-23T15:24:15;4.70;13.30
356;DHT22;62514;48.112;11.566;2024-02-23T15:26:44;4.70;12.50
356;DHT22;62514;48.112;11.566;2024-02-23T15:29:10;4.70;13.30
356;DHT22;62514;48.112;11.566;2024-02-23T15:31:36;4.70;13.20
356;DHT22;62514;48.112;11.566;2024-02-23T15:34:03;4.70;13.00
356;DHT22;62514;48.112;11.566;2024-02-23T15:36:29;4.70;12.50
356;DHT22;62514;48.112;11.566;2024-02-23T15:38:55;4.60;12.50
356;DHT22;62514;48.112;11.566;2024-02-23T15:41:25;4.60;13.10
356;DHT22;62514;48.112;11.566;2024-02-23T15:43:51;4.50;13.60
356;DHT22;62514;48.112;11.566;2024-02-23T15:46:17;4.50;14.40
356;DHT22;62514;48.112;11.566;2024-02-23T15:48:43;4.50;14.20
356;DHT22;62514;48.112;11.566;2024-02-23T15:51:09;4.50;13.90
356;DHT22;62514;48.112;11.566;2024-02-23T15:53:35;4.40;14.70
356;DHT22;62514;48.112;11.566;2024-02-23T15:56:01;4.40;14.70
356;DHT22;62514;48.112;11.566;2024-02-23T15:58:27;4.40;14.70
356;DHT22;62514;48.112;11.566;2024-02-23T16:00:53;4.30;15.60
356;DHT22;62514;48.112;11.566;2024-02-23T16:03:20;4.30;16.40